Daniel Island, South Carolina
Current Conditions -  °F | °C
As of 10:15 AM on Saturday 22 Nov 2014 (Local Time) from KLRO Reporting Station
Clear Clear  
Wind Chill: 55°   Ceiling: Unl
Heat Index: 55°   Visibility: 9mi
Dew Point: 43°   Wind: 5mph
Humidity: 63%   Direction: 20°NNE
Pressure: 30.52"   Gusts: NA
Location:  32.9577°N, 79.8822°W
Report Text: KLRO 221515Z AUTO 02004KT 9SM CLR 13/06 A3052 RMK AO2 PWINO PNO
Loading
Personal Weather Stations






























Interactive Weather Map New forecast layout! Learn more

10-Day Weather Forecast

Advertisements
Track Severe Weather on mobile